Погода Резендина 2 недели

Рио-де-Жанейро, Бразилия

21 июля-02 августа
  • 21июля
    Сегодня
    +9°
    +24°
    Ясно и безоблачно
    ВремяПогодаТемператураВлажностьДавлениеВетер, м/сВероятность осадков
    00:00Ясно и безоблачно+12°C85 %737 мм1.4 м/с5 %
    03:00Ясно и безоблачно+11°C90 %736 мм1.1 м/с5 %
    06:00Небольшая облачность+11°C89 %736 мм0.6 м/с5 %
    09:00Небольшая облачность+14°C78 %737 мм1.3 м/с5 %
    12:00Ясно и безоблачно+21°C64 %736 мм1.2 м/с5 %
    15:00Ясно и безоблачно+24°C59 %735 мм1.7 м/с5 %
    18:00Ясно и безоблачно+19°C74 %735 мм2.0 м/с5 %
    21:00Ясно и безоблачно+16°C91 %736 мм1.3 м/с5 %
  • 22июля
    Понедельник
    +13°
    +27°
    Ясно и безоблачно
    ВремяПогодаТемператураВлажностьДавлениеВетер, м/сВероятность осадков
    00:00Ясно и безоблачно+14°C88 %736 мм0.4 м/с5 %
    03:00Практически безоблачно+12°C92 %734 мм0.7 м/с5 %
    06:00Небольшая облачность+11°C93 %734 мм0.6 м/с5 %
    09:00Небольшая облачность+13°C82 %736 мм0.1 м/с5 %
    12:00Ясно и безоблачно+23°C53 %736 мм0.3 м/с5 %
    15:00Ясно и безоблачно+26°C43 %734 мм1.5 м/с5 %
    18:00Ясно и безоблачно+21°C64 %735 мм2.6 м/с5 %
    21:00Ясно и безоблачно+17°C81 %736 мм1.8 м/с5 %
  • 23июля
    Вторник
    +12°
    +25°
    Ясно и безоблачно
    ВремяПогодаТемператураВлажностьДавлениеВетер, м/сВероятность осадков
    00:00Ясно и безоблачно+15°C83 %736 мм0.5 м/с5 %
    03:00Небольшая облачность+14°C86 %735 мм0.8 м/с5 %
    06:00Небольшая облачность+14°C83 %736 мм0.6 м/с5 %
    09:00Практически безоблачно+14°C82 %738 мм1.0 м/с5 %
    12:00Ясно и безоблачно+22°C62 %737 мм1.6 м/с5 %
    15:00Ясно и безоблачно+24°C54 %736 мм2.5 м/с5 %
    18:00Ясно и безоблачно+18°C72 %736 мм2.8 м/с5 %
    21:00Ясно и безоблачно+15°C87 %737 мм1.6 м/с5 %
  • 24июля
    Среда
    +11°
    +25°
    Небольшая облачность
    ВремяПогодаТемператураВлажностьДавлениеВетер, м/сВероятность осадков
    00:00Небольшая облачность+14°C92 %737 мм1.4 м/с5 %
    03:00Облачно с прояснениями+12°C96 %736 мм1.0 м/с5 %
    06:00Облачно с прояснениями+12°C96 %737 мм0.9 м/с5 %
    09:00Облачно с прояснениями+13°C86 %738 мм1.4 м/с5 %
    12:00Небольшая облачность+21°C64 %737 мм1.4 м/с5 %
    15:00Небольшая облачность+25°C57 %736 мм1.6 м/с5 %
    18:00Практически безоблачно+19°C74 %736 мм0.9 м/с5 %
    21:00Небольшая облачность+17°C84 %737 мм1.0 м/с5 %
Мы используем cookies
Соглашаюсь